Wetterdaten: Woche 09.01.23 - 15.01.23 (KW2)
Datum Zeit Temp. Aussen Temp. o. S. Temp +5cm Feuchte Auss Luftdruck Regen Sonnenschein Regendauer Solar Windben Empfang
09.01.2023 00:00 7,9 C 6,9 C 3,7 C 94 % 994,8 hPa 1,4 l/m 0,00 h 1,00 h 0 W/m 12,7 km/h (3 Bft) 97,28 %
09.01.2023 01:00 7,5 C 6,5 C 3,4 C 95 % 995,0 hPa 0,6 l/m 0,00 h 0,50 h 0 W/m 19,8 km/h (4 Bft) 96,23 %
09.01.2023 02:00 7,2 C 6,1 C 3,2 C 95 % 995,4 hPa 0,0 l/m 0,00 h 0,00 h 0 W/m 12,8 km/h (3 Bft) 95,71 %
09.01.2023 03:00 6,7 C 5,8 C 2,7 C 95 % 995,9 hPa 0,0 l/m 0,00 h 0,00 h 0 W/m 13,2 km/h (3 Bft) 96,24 %
09.01.2023 04:00 6,4 C 5,7 C 2,4 C 94 % 996,0 hPa 0,0 l/m 0,00 h 0,00 h 0 W/m 18,2 km/h (3 Bft) 97,90 %
09.01.2023 05:00 5,9 C 5,1 C 1,8 C 93 % 996,4 hPa 0,0 l/m 0,00 h 0,00 h 0 W/m 17,1 km/h (3 Bft) 94,71 %
09.01.2023 06:00 6,2 C 5,6 C 2,2 C 92 % 996,8 hPa 0,0 l/m 0,00 h 0,00 h 0 W/m 17,6 km/h (3 Bft) 96,47 %
09.01.2023 07:00 6,6 C 6,0 C 2,8 C 91 % 996,9 hPa 0,0 l/m 0,00 h 0,00 h 0 W/m 14,8 km/h (3 Bft) 98,03 %
09.01.2023 08:00 7,2 C 6,6 C 3,3 C 89 % 996,9 hPa 0,0 l/m 0,00 h 0,37 h 0 W/m 25,0 km/h (4 Bft) 95,20 %
09.01.2023 09:00 7,7 C 7,1 C 4,0 C 87 % 997,3 hPa 0,0 l/m 0,00 h 0,40 h 11 W/m 26,8 km/h (4 Bft) 97,77 %
09.01.2023 10:00 8,0 C 7,6 C 4,3 C 86 % 998,1 hPa 0,0 l/m 0,00 h 0,00 h 38 W/m 27,2 km/h (4 Bft) 98,08 %
09.01.2023 11:00 8,1 C 7,8 C 4,4 C 86 % 998,8 hPa 0,0 l/m 0,00 h 0,00 h 58 W/m 28,9 km/h (5 Bft) 97,30 %
09.01.2023 12:00 8,2 C 7,8 C 4,5 C 85 % 999,0 hPa 0,0 l/m 0,00 h 0,00 h 51 W/m 23,5 km/h (4 Bft) 96,32 %
09.01.2023 13:00 8,1 C 7,7 C 4,3 C 85 % 999,7 hPa 0,0 l/m 0,03 h 0,23 h 82 W/m 20,4 km/h (4 Bft) 98,79 %
09.01.2023 14:00 7,8 C 7,5 C 3,8 C 88 % 1000,3 hPa 0,0 l/m 0,00 h 0,43 h 69 W/m 16,8 km/h (3 Bft) 96,09 %
09.01.2023 15:00 7,7 C 7,3 C 4,0 C 88 % 1001,4 hPa 0,0 l/m 0,00 h 0,00 h 40 W/m 16,5 km/h (3 Bft) 98,29 %
09.01.2023 16:00 7,6 C 6,9 C 3,9 C 88 % 1002,6 hPa 0,0 l/m 0,00 h 0,00 h 8 W/m 15,9 km/h (3 Bft) 95,82 %
09.01.2023 17:00 7,2 C 6,4 C 3,0 C 90 % 1003,9 hPa 0,6 l/m 0,00 h 0,33 h 0 W/m 14,3 km/h (3 Bft) 96,66 %
09.01.2023 18:00 6,9 C 6,1 C 2,2 C 92 % 1004,8 hPa 0,8 l/m 0,00 h 0,87 h 0 W/m 14,9 km/h (3 Bft) 97,17 %
09.01.2023 19:00 6,2 C 5,2 C 1,9 C 93 % 1005,9 hPa 0,2 l/m 0,00 h 0,10 h 0 W/m 8,6 km/h (2 Bft) 98,55 %
09.01.2023 20:00 6,4 C 5,6 C 2,3 C 95 % 1007,0 hPa 0,0 l/m 0,00 h 0,47 h 0 W/m 13,6 km/h (3 Bft) 95,33 %
09.01.2023 21:00 6,2 C 5,6 C 2,2 C 95 % 1008,2 hPa 0,0 l/m 0,00 h 0,00 h 0 W/m 13,0 km/h (3 Bft) 99,36 %
09.01.2023 22:00 6,1 C 5,6 C 2,2 C 94 % 1009,5 hPa 0,0 l/m 0,00 h 0,00 h 0 W/m 10,6 km/h (2 Bft) 97,09 %
09.01.2023 23:00 5,7 C 4,9 C 1,7 C 94 % 1010,6 hPa 0,0 l/m 0,00 h 0,00 h 0 W/m 11,8 km/h (2 Bft) 96,51 %
10.01.2023 00:00 5,5 C 4,8 C 1,7 C 94 % 1011,9 hPa 0,0 l/m 0,00 h 0,00 h 0 W/m 9,1 km/h (2 Bft) 93,87 %
10.01.2023 01:00 5,7 C 5,0 C 2,0 C 94 % 1013,1 hPa 0,0 l/m 0,00 h 0,00 h 0 W/m 13,4 km/h (3 Bft) 97,86 %
10.01.2023 02:00 5,7 C 4,9 C 2,1 C 93 % 1014,4 hPa 0,0 l/m 0,00 h 0,00 h 0 W/m 10,4 km/h (2 Bft) 97,95 %
10.01.2023 03:00 5,0 C 4,1 C 1,5 C 92 % 1015,1 hPa 0,0 l/m 0,00 h 0,00 h 0 W/m 12,5 km/h (3 Bft) 94,55 %
10.01.2023 04:00 4,5 C 3,8 C 1,1 C 93 % 1015,7 hPa 0,0 l/m 0,00 h 0,00 h 0 W/m 10,3 km/h (2 Bft) 98,58 %
10.01.2023 05:00 4,7 C 4,1 C 1,5 C 93 % 1016,3 hPa 0,0 l/m 0,00 h 0,00 h 0 W/m 11,4 km/h (2 Bft) 96,22 %
10.01.2023 06:00 4,7 C 3,9 C 1,4 C 92 % 1016,8 hPa 0,0 l/m 0,00 h 0,00 h 0 W/m 17,0 km/h (3 Bft) 97,16 %
10.01.2023 07:00 4,3 C 3,5 C 1,1 C 92 % 1017,6 hPa 0,0 l/m 0,00 h 0,00 h 0 W/m 13,4 km/h (3 Bft) 98,22 %
10.01.2023 08:00 4,3 C 3,4 C 1,1 C 93 % 1018,4 hPa 0,0 l/m 0,00 h 0,00 h 8 W/m 13,0 km/h (3 Bft) 97,14 %
10.01.2023 09:00 4,2 C 3,8 C 1,1 C 93 % 1019,1 hPa 0,0 l/m 0,00 h 0,00 h 28 W/m 14,5 km/h (3 Bft) 96,25 %
10.01.2023 10:00 5,1 C 5,3 C 2,1 C 92 % 1019,4 hPa 0,0 l/m 0,80 h 0,00 h 142 W/m 17,4 km/h (3 Bft) 95,30 %
10.01.2023 11:00 6,2 C 6,6 C 3,2 C 88 % 1019,3 hPa 0,0 l/m 0,90 h 0,00 h 167 W/m 21,9 km/h (4 Bft) 98,01 %
10.01.2023 12:00 7,3 C 7,6 C 4,1 C 85 % 1018,7 hPa 0,0 l/m 0,03 h 0,00 h 147 W/m 17,8 km/h (3 Bft) 97,39 %
10.01.2023 13:00 7,9 C 7,8 C 4,4 C 83 % 1018,2 hPa 0,0 l/m 0,00 h 0,00 h 114 W/m 17,8 km/h (3 Bft) 92,54 %
10.01.2023 14:00 8,2 C 7,8 C 4,4 C 81 % 1017,4 hPa 0,0 l/m 0,00 h 0,00 h 66 W/m 22,4 km/h (4 Bft) 95,90 %
10.01.2023 15:00 8,1 C 7,4 C 4,1 C 78 % 1016,7 hPa 0,0 l/m 0,00 h 0,00 h 28 W/m 20,6 km/h (4 Bft) 97,67 %
10.01.2023 16:00 7,6 C 6,4 C 2,6 C 82 % 1016,0 hPa 0,8 l/m 0,00 h 0,67 h 11 W/m 19,0 km/h (3 Bft) 95,38 %
10.01.2023 17:00 6,3 C 5,1 C 1,7 C 91 % 1014,9 hPa 1,6 l/m 0,00 h 1,00 h 0 W/m 20,4 km/h (4 Bft) 96,60 %
10.01.2023 18:00 6,0 C 5,0 C 1,7 C 94 % 1014,1 hPa 2,0 l/m 0,00 h 0,83 h 0 W/m 20,6 km/h (4 Bft) 97,53 %
10.01.2023 19:00 5,8 C 5,0 C 2,2 C 96 % 1013,4 hPa 0,6 l/m 0,00 h 0,00 h 0 W/m 23,3 km/h (4 Bft) 98,08 %
10.01.2023 20:00 5,9 C 5,1 C 2,2 C 97 % 1012,6 hPa 0,2 l/m 0,00 h 0,00 h 0 W/m 17,6 km/h (3 Bft) 95,22 %
10.01.2023 21:00 6,4 C 5,8 C 2,8 C 97 % 1012,2 hPa 0,0 l/m 0,00 h 0,00 h 0 W/m 16,4 km/h (3 Bft) 97,42 %
10.01.2023 22:00 7,0 C 6,5 C 3,3 C 97 % 1011,6 hPa 0,0 l/m 0,00 h 0,07 h 0 W/m 15,8 km/h (3 Bft) 96,98 %
10.01.2023 23:00 7,3 C 6,7 C 3,5 C 96 % 1011,1 hPa 0,4 l/m 0,00 h 0,17 h 0 W/m 16,2 km/h (3 Bft) 94,14 %
11.01.2023 00:00 7,4 C 6,9 C 3,9 C 97 % 1010,5 hPa 0,0 l/m 0,00 h 0,00 h 0 W/m 9,9 km/h (2 Bft) 97,41 %
11.01.2023 01:00 8,0 C 7,7 C 4,4 C 97 % 1010,0 hPa 0,0 l/m 0,00 h 0,00 h 0 W/m 13,1 km/h (3 Bft) 97,40 %
11.01.2023 02:00 8,6 C 8,1 C 4,7 C 95 % 1009,4 hPa 0,0 l/m 0,00 h 0,00 h 0 W/m 14,6 km/h (3 Bft) 95,52 %
11.01.2023 03:00 9,8 C 9,4 C 5,8 C 95 % 1009,0 hPa 0,0 l/m 0,00 h 0,00 h 0 W/m 19,4 km/h (3 Bft) 99,40 %
11.01.2023 04:00 11,1 C 10,0 C 6,7 C 94 % 1008,5 hPa 0,6 l/m 0,00 h 0,73 h 0 W/m 26,9 km/h (4 Bft) 96,02 %
11.01.2023 05:00 10,8 C 9,7 C 6,7 C 95 % 1008,2 hPa 0,6 l/m 0,00 h 0,83 h 0 W/m 21,0 km/h (4 Bft) 97,57 %
11.01.2023 06:00 10,9 C 10,0 C 7,1 C 96 % 1008,1 hPa 0,8 l/m 0,00 h 0,97 h 0 W/m 24,2 km/h (4 Bft) 98,01 %
11.01.2023 07:00 11,0 C 10,0 C 7,2 C 97 % 1008,2 hPa 1,0 l/m 0,00 h 0,60 h 0 W/m 19,3 km/h (3 Bft) 97,68 %
11.01.2023 08:00 10,8 C 9,7 C 7,2 C 97 % 1008,8 hPa 0,0 l/m 0,00 h 0,30 h 3 W/m 10,0 km/h (2 Bft) 94,13 %
11.01.2023 09:00 10,4 C 9,5 C 6,9 C 97 % 1009,7 hPa 0,4 l/m 0,00 h 0,43 h 11 W/m 10,8 km/h (2 Bft) 97,72 %
11.01.2023 10:00 10,0 C 9,2 C 6,4 C 95 % 1010,8 hPa 0,0 l/m 0,00 h 0,00 h 28 W/m 12,3 km/h (3 Bft) 97,08 %
11.01.2023 11:00 9,7 C 9,4 C 6,0 C 93 % 1011,5 hPa 0,0 l/m 0,03 h 0,00 h 78 W/m 12,4 km/h (3 Bft) 96,25 %
11.01.2023 12:00 10,1 C 11,5 C 5,6 C 90 % 1011,7 hPa 0,0 l/m 0,17 h 0,00 h 124 W/m 17,3 km/h (3 Bft) 96,83 %
11.01.2023 13:00 11,0 C 15,0 C 6,7 C 83 % 1012,0 hPa 0,2 l/m 0,97 h 0,00 h 276 W/m 18,7 km/h (3 Bft) 98,58 %
11.01.2023 14:00 10,8 C 11,4 C 6,7 C 81 % 1012,3 hPa 0,0 l/m 0,47 h 0,00 h 138 W/m 17,2 km/h (3 Bft) 96,25 %
11.01.2023 15:00 10,6 C 10,2 C 6,7 C 80 % 1012,7 hPa 0,0 l/m 0,60 h 0,00 h 85 W/m 16,8 km/h (3 Bft) 97,94 %
11.01.2023 16:00 10,1 C 9,2 C 5,9 C 79 % 1012,9 hPa 0,0 l/m 0,07 h 0,00 h 19 W/m 16,8 km/h (3 Bft) 96,52 %
11.01.2023 17:00 9,7 C 8,7 C 5,4 C 80 % 1013,3 hPa 0,0 l/m 0,00 h 0,00 h 0 W/m 23,5 km/h (4 Bft) 96,17 %
11.01.2023 18:00 9,1 C 8,2 C 5,0 C 83 % 1013,9 hPa 0,0 l/m 0,00 h 0,00 h 0 W/m 23,7 km/h (4 Bft) 98,93 %
11.01.2023 19:00 8,8 C 7,8 C 4,7 C 83 % 1013,8 hPa 0,0 l/m 0,00 h 0,00 h 0 W/m 30,3 km/h (5 Bft) 95,39 %
11.01.2023 20:00 8,7 C 7,9 C 4,6 C 83 % 1013,3 hPa 0,0 l/m 0,00 h 0,00 h 0 W/m 31,6 km/h (5 Bft) 97,07 %
11.01.2023 21:00 8,9 C 8,3 C 5,0 C 83 % 1012,8 hPa 0,0 l/m 0,00 h 0,00 h 0 W/m 35,3 km/h (5 Bft) 99,50 %
11.01.2023 22:00 9,2 C 8,1 C 4,6 C 83 % 1012,3 hPa 0,0 l/m 0,00 h 0,73 h 0 W/m 40,0 km/h (6 Bft) 95,37 %
11.01.2023 23:00 8,6 C 7,4 C 3,6 C 89 % 1012,3 hPa 0,6 l/m 0,00 h 1,00 h 0 W/m 27,3 km/h (4 Bft) 98,40 %
12.01.2023 00:00 8,3 C 7,1 C 3,5 C 92 % 1012,3 hPa 0,8 l/m 0,00 h 1,00 h 0 W/m 26,3 km/h (4 Bft) 97,61 %
12.01.2023 01:00 8,2 C 7,2 C 3,9 C 94 % 1011,9 hPa 0,4 l/m 0,00 h 1,00 h 0 W/m 33,6 km/h (5 Bft) 96,23 %
12.01.2023 02:00 8,6 C 7,7 C 4,2 C 94 % 1011,5 hPa 0,0 l/m 0,00 h 0,07 h 0 W/m 30,5 km/h (5 Bft) 97,94 %
12.01.2023 03:00 8,8 C 7,8 C 4,4 C 92 % 1010,9 hPa 0,2 l/m 0,00 h 0,70 h 0 W/m 35,5 km/h (5 Bft) 98,36 %
12.01.2023 04:00 8,8 C 7,3 C 4,4 C 92 % 1010,1 hPa 0,4 l/m 0,00 h 1,00 h 0 W/m 36,6 km/h (5 Bft) 95,17 %
12.01.2023 05:00 8,8 C 7,2 C 4,4 C 93 % 1009,2 hPa 1,6 l/m 0,00 h 1,00 h 0 W/m 39,7 km/h (6 Bft) 99,07 %
12.01.2023 06:00 8,6 C 7,2 C 4,4 C 94 % 1008,1 hPa 2,4 l/m 0,00 h 1,00 h 0 W/m 41,4 km/h (6 Bft) 96,87 %
12.01.2023 07:00 8,6 C 7,2 C 4,5 C 95 % 1007,2 hPa 1,4 l/m 0,00 h 1,00 h 0 W/m 41,2 km/h (6 Bft) 97,93 %
12.01.2023 08:00 9,0 C 7,6 C 5,0 C 95 % 1007,0 hPa 1,2 l/m 0,00 h 0,97 h 0 W/m 39,0 km/h (6 Bft) 96,51 %
12.01.2023 09:00 9,3 C 7,9 C 5,6 C 95 % 1007,2 hPa 0,8 l/m 0,00 h 1,00 h 13 W/m 35,3 km/h (5 Bft) 96,01 %
12.01.2023 10:00 9,7 C 8,5 C 5,9 C 95 % 1007,5 hPa 0,4 l/m 0,00 h 1,00 h 34 W/m 35,3 km/h (5 Bft) 97,14 %
12.01.2023 11:00 10,0 C 9,1 C 6,3 C 95 % 1008,0 hPa 0,2 l/m 0,00 h 0,77 h 47 W/m 32,2 km/h (5 Bft) 95,89 %
12.01.2023 12:00 10,2 C 9,4 C 6,7 C 95 % 1007,9 hPa 0,0 l/m 0,00 h 0,50 h 39 W/m 33,3 km/h (5 Bft) 99,05 %
12.01.2023 13:00 10,3 C 9,4 C 6,7 C 95 % 1007,6 hPa 0,2 l/m 0,00 h 1,00 h 61 W/m 38,8 km/h (5 Bft) 96,85 %
12.01.2023 14:00 10,3 C 9,4 C 6,7 C 95 % 1007,3 hPa 0,6 l/m 0,00 h 1,00 h 41 W/m 33,8 km/h (5 Bft) 97,15 %
12.01.2023 15:00 10,4 C 9,3 C 6,7 C 95 % 1007,1 hPa 0,6 l/m 0,00 h 1,00 h 19 W/m 36,5 km/h (5 Bft) 98,15 %
12.01.2023 16:00 10,5 C 9,1 C 6,7 C 94 % 1006,8 hPa 0,4 l/m 0,00 h 1,00 h 7 W/m 38,6 km/h (5 Bft) 95,41 %
12.01.2023 17:00 10,4 C 9,1 C 6,7 C 94 % 1006,5 hPa 0,4 l/m 0,00 h 1,00 h 0 W/m 35,8 km/h (5 Bft) 96,84 %
12.01.2023 18:00 10,5 C 8,9 C 6,7 C 94 % 1006,3 hPa 0,6 l/m 0,00 h 1,00 h 0 W/m 35,4 km/h (5 Bft) 97,57 %
12.01.2023 19:00 10,3 C 8,9 C 6,7 C 95 % 1006,3 hPa 0,8 l/m 0,00 h 1,00 h 0 W/m 35,8 km/h (5 Bft) 93,26 %
12.01.2023 20:00 10,2 C 8,9 C 6,7 C 95 % 1006,1 hPa 1,0 l/m 0,00 h 1,00 h 0 W/m 33,8 km/h (5 Bft) 98,58 %
12.01.2023 21:00 10,0 C 8,9 C 6,7 C 96 % 1006,0 hPa 0,6 l/m 0,00 h 0,67 h 0 W/m 22,8 km/h (4 Bft) 97,58 %
12.01.2023 22:00 10,1 C 8,9 C 6,7 C 97 % 1005,9 hPa 0,0 l/m 0,00 h 0,87 h 0 W/m 26,7 km/h (4 Bft) 97,09 %
12.01.2023 23:00 10,2 C 9,4 C 6,7 C 96 % 1005,7 hPa 0,0 l/m 0,00 h 0,43 h 0 W/m 30,7 km/h (5 Bft) 97,67 %
13.01.2023 00:00 10,4 C 9,4 C 7,0 C 95 % 1005,5 hPa 0,2 l/m 0,00 h 0,53 h 0 W/m 28,0 km/h (4 Bft) 97,03 %
13.01.2023 01:00 10,0 C 9,3 C 6,3 C 94 % 1005,2 hPa 0,0 l/m 0,00 h 0,03 h 0 W/m 20,1 km/h (4 Bft) 96,74 %
13.01.2023 02:00 9,7 C 8,8 C 6,1 C 90 % 1005,2 hPa 0,0 l/m 0,00 h 0,00 h 0 W/m 17,9 km/h (3 Bft) 97,35 %
13.01.2023 03:00 9,1 C 8,1 C 5,7 C 87 % 1005,5 hPa 0,0 l/m 0,00 h 0,00 h 0 W/m 17,3 km/h (3 Bft) 97,72 %
13.01.2023 04:00 8,2 C 7,2 C 5,0 C 85 % 1005,2 hPa 0,0 l/m 0,00 h 0,00 h 0 W/m 22,4 km/h (4 Bft) 96,71 %
13.01.2023 05:00 8,2 C 7,5 C 4,8 C 86 % 1005,2 hPa 0,0 l/m 0,00 h 0,30 h 0 W/m 24,2 km/h (4 Bft) 96,58 %
13.01.2023 06:00 8,0 C 7,2 C 4,4 C 87 % 1005,3 hPa 0,0 l/m 0,00 h 0,03 h 0 W/m 21,9 km/h (4 Bft) 98,34 %
13.01.2023 07:00 7,9 C 7,2 C 4,4 C 86 % 1005,6 hPa 0,0 l/m 0,00 h 0,00 h 0 W/m 22,8 km/h (4 Bft) 97,42 %
13.01.2023 08:00 7,9 C 7,1 C 4,3 C 85 % 1005,9 hPa 0,0 l/m 0,00 h 0,00 h 6 W/m 24,6 km/h (4 Bft) 96,87 %
13.01.2023 09:00 8,0 C 7,5 C 4,5 C 85 % 1006,3 hPa 0,0 l/m 0,13 h 0,00 h 42 W/m 27,8 km/h (4 Bft) 99,14 %
13.01.2023 10:00 8,4 C 8,2 C 5,0 C 85 % 1006,7 hPa 0,0 l/m 0,53 h 0,00 h 132 W/m 26,5 km/h (4 Bft) 95,23 %
13.01.2023 11:00 9,1 C 9,4 C 5,4 C 82 % 1007,0 hPa 0,0 l/m 0,53 h 0,00 h 161 W/m 30,8 km/h (5 Bft) 98,05 %
13.01.2023 12:00 9,5 C 9,0 C 5,5 C 80 % 1007,4 hPa 0,0 l/m 0,03 h 0,30 h 87 W/m 25,8 km/h (4 Bft) 98,38 %
13.01.2023 13:00 9,2 C 8,9 C 5,1 C 83 % 1007,9 hPa 0,0 l/m 0,27 h 0,60 h 127 W/m 24,8 km/h (4 Bft) 93,74 %
13.01.2023 14:00 8,8 C 8,3 C 5,0 C 85 % 1008,6 hPa 0,0 l/m 0,00 h 0,07 h 30 W/m 24,2 km/h (4 Bft) 97,87 %
13.01.2023 15:00 8,6 C 8,0 C 4,6 C 86 % 1009,4 hPa 0,0 l/m 0,13 h 0,43 h 36 W/m 20,8 km/h (4 Bft) 97,67 %
13.01.2023 16:00 8,4 C 7,8 C 4,4 C 87 % 1010,5 hPa 0,0 l/m 0,00 h 0,03 h 20 W/m 20,7 km/h (4 Bft) 95,14 %
13.01.2023 17:00 8,4 C 7,7 C 4,4 C 87 % 1011,5 hPa 0,0 l/m 0,00 h 0,37 h 0 W/m 17,1 km/h (3 Bft) 98,14 %
13.01.2023 18:00 8,3 C 7,8 C 4,4 C 87 % 1012,5 hPa 0,0 l/m 0,00 h 0,03 h 0 W/m 19,1 km/h (3 Bft) 96,11 %
13.01.2023 19:00 8,5 C 7,8 C 4,4 C 84 % 1013,0 hPa 0,0 l/m 0,00 h 0,07 h 0 W/m 19,9 km/h (4 Bft) 96,70 %
13.01.2023 20:00 8,3 C 7,4 C 4,1 C 82 % 1013,6 hPa 0,0 l/m 0,00 h 0,00 h 0 W/m 19,4 km/h (3 Bft) 98,36 %
13.01.2023 21:00 8,0 C 7,2 C 3,9 C 85 % 1014,4 hPa 0,0 l/m 0,00 h 0,03 h 0 W/m 17,6 km/h (3 Bft) 91,62 %
13.01.2023 22:00 7,6 C 6,8 C 3,5 C 87 % 1015,0 hPa 0,0 l/m 0,00 h 0,00 h 0 W/m 16,1 km/h (3 Bft) 69,00 %
13.01.2023 23:00 7,5 C 6,7 C 3,3 C 88 % 1015,5 hPa 0,0 l/m 0,00 h 0,00 h 0 W/m 17,2 km/h (3 Bft) 92,31 %
14.01.2023 00:00 7,4 C 6,7 C 3,3 C 87 % 1016,1 hPa 0,0 l/m 0,00 h 0,00 h 0 W/m 18,2 km/h (3 Bft) 90,01 %
14.01.2023 01:00 7,2 C 6,3 C 3,1 C 88 % 1016,0 hPa 0,0 l/m 0,00 h 0,00 h 0 W/m 15,8 km/h (3 Bft) 84,87 %
14.01.2023 02:00 6,8 C 6,0 C 2,8 C 90 % 1016,4 hPa 0,0 l/m 0,00 h 0,00 h 0 W/m 16,6 km/h (3 Bft) 95,04 %
14.01.2023 03:00 6,6 C 5,7 C 2,8 C 90 % 1016,2 hPa 0,0 l/m 0,00 h 0,00 h 0 W/m 17,5 km/h (3 Bft) 97,08 %
14.01.2023 04:00 6,4 C 5,7 C 2,8 C 90 % 1015,5 hPa 0,0 l/m 0,00 h 0,00 h 0 W/m 13,1 km/h (3 Bft) 90,33 %
14.01.2023 05:00 6,2 C 5,6 C 2,8 C 91 % 1014,8 hPa 0,0 l/m 0,00 h 0,00 h 0 W/m 11,6 km/h (2 Bft) 92,95 %
14.01.2023 06:00 6,2 C 5,6 C 2,8 C 91 % 1013,8 hPa 0,0 l/m 0,00 h 0,00 h 0 W/m 13,6 km/h (3 Bft) 97,21 %
14.01.2023 07:00 6,4 C 5,9 C 2,7 C 90 % 1012,7 hPa 0,0 l/m 0,00 h 0,23 h 0 W/m 13,6 km/h (3 Bft) 96,13 %
14.01.2023 08:00 6,5 C 5,6 C 2,2 C 91 % 1011,3 hPa 0,8 l/m 0,00 h 1,00 h 0 W/m 17,5 km/h (3 Bft) 98,74 %
14.01.2023 09:00 6,5 C 5,8 C 2,4 C 94 % 1009,9 hPa 0,2 l/m 0,00 h 0,20 h 14 W/m 16,5 km/h (3 Bft) 96,30 %
14.01.2023 10:00 7,2 C 6,9 C 3,1 C 94 % 1008,3 hPa 0,0 l/m 0,00 h 0,03 h 20 W/m 19,5 km/h (3 Bft) 97,17 %
14.01.2023 11:00 7,8 C 6,8 C 3,5 C 94 % 1006,8 hPa 2,2 l/m 0,00 h 1,00 h 19 W/m 18,0 km/h (3 Bft) 96,67 %
14.01.2023 12:00 8,1 C 7,2 C 4,2 C 96 % 1004,8 hPa 1,6 l/m 0,00 h 1,00 h 25 W/m 21,7 km/h (4 Bft) 96,49 %
14.01.2023 13:00 9,0 C 7,8 C 5,0 C 96 % 1003,2 hPa 0,6 l/m 0,00 h 0,87 h 26 W/m 30,6 km/h (5 Bft) 97,42 %
14.01.2023 14:00 9,4 C 8,2 C 5,3 C 95 % 1001,7 hPa 0,4 l/m 0,00 h 0,97 h 19 W/m 23,9 km/h (4 Bft) 96,48 %
14.01.2023 15:00 10,0 C 8,6 C 5,8 C 95 % 1000,4 hPa 0,6 l/m 0,00 h 0,93 h 18 W/m 35,0 km/h (5 Bft) 96,45 %
14.01.2023 16:00 10,9 C 9,9 C 6,1 C 91 % 999,4 hPa 0,0 l/m 0,00 h 0,27 h 8 W/m 46,7 km/h (6 Bft) 98,29 %
14.01.2023 17:00 11,7 C 10,8 C 6,5 C 87 % 998,7 hPa 0,0 l/m 0,00 h 0,00 h 0 W/m 43,4 km/h (6 Bft) 96,44 %
14.01.2023 18:00 11,9 C 11,1 C 7,7 C 87 % 998,4 hPa 0,0 l/m 0,00 h 0,00 h 0 W/m 43,6 km/h (6 Bft) 98,49 %
14.01.2023 19:00 12,0 C 11,1 C 7,8 C 88 % 998,2 hPa 0,0 l/m 0,00 h 0,13 h 0 W/m 42,1 km/h (6 Bft) 96,02 %
14.01.2023 20:00 11,4 C 10,2 C 6,9 C 93 % 998,1 hPa 0,6 l/m 0,00 h 0,70 h 0 W/m 32,2 km/h (5 Bft) 98,37 %
14.01.2023 21:00 11,0 C 9,8 C 6,7 C 96 % 998,5 hPa 1,6 l/m 0,00 h 0,47 h 0 W/m 20,7 km/h (4 Bft) 88,04 %
14.01.2023 22:00 10,7 C 9,8 C 6,2 C 93 % 998,9 hPa 0,2 l/m 0,00 h 0,40 h 0 W/m 16,8 km/h (3 Bft) 96,65 %
14.01.2023 23:00 9,8 C 8,9 C 5,4 C 92 % 999,0 hPa 0,6 l/m 0,00 h 0,90 h 0 W/m 20,4 km/h (4 Bft) 72,81 %
15.01.2023 00:00 7,5 C 6,4 C 3,2 C 90 % 1000,0 hPa 1,6 l/m 0,00 h 1,00 h 0 W/m 18,1 km/h (3 Bft) 95,23 %
15.01.2023 01:00 6,7 C 6,1 C 3,1 C 94 % 1000,2 hPa 0,0 l/m 0,00 h 0,07 h 0 W/m 16,0 km/h (3 Bft) 95,59 %
15.01.2023 02:00 6,6 C 6,1 C 2,5 C 90 % 1000,3 hPa 0,0 l/m 0,00 h 0,00 h 0 W/m 20,9 km/h (4 Bft) 96,63 %
15.01.2023 03:00 6,6 C 6,0 C 2,2 C 88 % 1000,3 hPa 0,0 l/m 0,00 h 0,00 h 0 W/m 20,3 km/h (4 Bft) 97,65 %
15.01.2023 04:00 6,6 C 6,1 C 2,6 C 88 % 999,9 hPa 0,0 l/m 0,00 h 0,00 h 0 W/m 21,4 km/h (4 Bft) 92,65 %
15.01.2023 05:00 6,6 C 6,1 C 3,3 C 88 % 999,8 hPa 0,0 l/m 0,00 h 0,00 h 0 W/m 22,6 km/h (4 Bft) 84,89 %
15.01.2023 06:00 6,6 C 6,1 C 3,3 C 88 % 999,9 hPa 0,0 l/m 0,00 h 0,00 h 0 W/m 22,2 km/h (4 Bft) 96,03 %
15.01.2023 07:00 6,6 C 5,9 C 3,1 C 88 % 1000,1 hPa 0,0 l/m 0,00 h 0,00 h 0 W/m 22,0 km/h (4 Bft) 95,95 %
15.01.2023 08:00 6,4 C 5,7 C 2,9 C 87 % 1000,4 hPa 0,0 l/m 0,00 h 0,03 h 7 W/m 29,1 km/h (5 Bft) 96,48 %
15.01.2023 09:00 6,1 C 5,5 C 2,6 C 85 % 1001,1 hPa 0,0 l/m 0,00 h 0,03 h 17 W/m 27,4 km/h (4 Bft) 99,50 %
15.01.2023 10:00 6,0 C 5,5 C 2,4 C 85 % 1001,2 hPa 0,0 l/m 0,70 h 0,00 h 156 W/m 34,4 km/h (5 Bft) 94,88 %
15.01.2023 11:00 6,8 C 6,7 C 3,3 C 80 % 1001,5 hPa 0,0 l/m 0,17 h 0,00 h 127 W/m 38,9 km/h (6 Bft) 97,30 %
15.01.2023 12:00 7,1 C 7,0 C 3,3 C 79 % 1001,6 hPa 0,0 l/m 0,10 h 0,00 h 125 W/m 39,4 km/h (6 Bft) 97,22 %
15.01.2023 13:00 7,1 C 7,3 C 3,3 C 78 % 1001,5 hPa 0,0 l/m 0,03 h 0,00 h 115 W/m 32,3 km/h (5 Bft) 98,51 %
15.01.2023 14:00 7,2 C 6,7 C 3,3 C 78 % 1001,5 hPa 0,0 l/m 0,00 h 0,00 h 60 W/m 31,0 km/h (5 Bft) 97,07 %
15.01.2023 15:00 7,2 C 6,8 C 3,3 C 77 % 1001,6 hPa 0,0 l/m 0,17 h 0,00 h 63 W/m 33,7 km/h (5 Bft) 97,49 %
15.01.2023 16:00 7,0 C 6,3 C 2,8 C 78 % 1001,9 hPa 0,0 l/m 0,00 h 0,13 h 16 W/m 36,9 km/h (5 Bft) 97,06 %
15.01.2023 17:00 6,7 C 6,0 C 2,5 C 80 % 1002,2 hPa 0,0 l/m 0,00 h 0,03 h 0 W/m 28,5 km/h (4 Bft) 96,52 %
15.01.2023 18:00 6,8 C 6,1 C 2,7 C 80 % 1002,5 hPa 0,0 l/m 0,00 h 0,00 h 0 W/m 28,1 km/h (4 Bft) 95,82 %
15.01.2023 19:00 6,5 C 5,8 C 2,4 C 82 % 1002,5 hPa 0,0 l/m 0,00 h 0,00 h 0 W/m 29,4 km/h (5 Bft) 96,65 %
15.01.2023 20:00 6,2 C 5,6 C 2,2 C 82 % 1002,0 hPa 0,0 l/m 0,00 h 0,00 h 0 W/m 18,9 km/h (3 Bft) 95,13 %
15.01.2023 21:00 6,2 C 5,6 C 2,2 C 82 % 1001,3 hPa 0,0 l/m 0,00 h 0,03 h 0 W/m 18,7 km/h (3 Bft) 75,96 %
15.01.2023 22:00 6,5 C 5,7 C 2,2 C 82 % 1000,3 hPa 0,0 l/m 0,00 h 0,00 h 0 W/m 27,0 km/h (4 Bft) 96,36 %
15.01.2023 23:00 6,1 C 5,3 C 1,8 C 84 % 999,3 hPa 0,0 l/m 0,00 h 0,20 h 0 W/m 20,2 km/h (4 Bft) 98,58 %
Min-Datum _ 10.01.23 10.01.23 10.01.23 15.01.23 09.01.23 - - - - 09.01.23 15.01.23
_ Min-Zeit 08:54 04:36 08:52 15:32 00:00 - - - - 00:22 04:05
Minimum _ 4,1 C 3,3 C 0,6 C 76 % 994,6 hPa - - - - 3,2 km/h (1 Bft) 4,76 %
Max-Datum _ 14.01.23 11.01.23 14.01.23 10.01.23 10.01.23 12.01.23 09.01.23 09.01.23 11.01.23 12.01.23 09.01.23
_ Max-Zeit 19:38 13:06 18:07 20:06 10:46 06:04 13:34 00:12 13:04 08:20 00:08
Maximum _ 12,1 C 16,7 C 7,8 C 97 % 1019,5 hPa 2,4 l/m 0,03 h 0,07 h 338 W/m 74,0 km/h
SO (8 Bft)
100,00 %
Durchschnitt _ 8,0 C 7,3 C 4,1 C 90 % 1007,3 hPa #39,6 l/m #6:52 h #47:40 h 59 W/m 23,0 km/h (4 Bft) 96,11 %
© 2023 W. Hausmann